Terminal Aerodrome Forecast
Issued by NWS Spokane, WA

Home | Current Version | Previous Version | Text Only | Print | Product List | Glossary On
Versions: 1 2 3 4 5 6 7 8 9 10 11 12 13
000
FTUS46 KOTX 221735
TAFEAT
TAF
KEAT 221735Z 2218/2318 27005KT P6SM SKC
     FM221900 13006KT P6SM SKC
     FM230500 30009KT P6SM FEW200=

USA.gov is the U.S. government's official web portal to all federal, state and local government web resources and services.